| time (UTC) | temp C | wind direction | speed KPH | gust KPH | rain 1hr cm | rain 24hr cm | rain mn cm | humidity % | barometer mb |
| 20260906154535 | 27 | 42 | 8.0 | 20.9 | 0.00 | 0.00 | 0.00 | 75 | 1014.4 |
| 20260906153038 | 27 | 85 | 11.3 | 17.7 | 0.00 | 0.00 | 0.00 | 76 | 1014.4 |
| 20260906151532 | 26 | 77 | 9.7 | 16.1 | 0.00 | 0.00 | 0.00 | 78 | 1014.3 |
| 20260906150026 | 26 | 74 | 12.9 | 19.3 | 0.00 | 0.00 | 0.00 | 79 | 1014.4 |
| 20260906144525 | 25 | 79 | 3.2 | 14.5 | 0.00 | 0.00 | 0.00 | 80 | 1014.3 |
| 20260906143024 | 25 | 81 | 8.0 | 16.1 | 0.00 | 0.00 | 0.00 | 80 | 1014.4 |
| 20260906141523 | 25 | 65 | 9.7 | 16.1 | 0.00 | 0.00 | 0.00 | 81 | 1014.4 |
| 20260906140022 | 24 | 60 | 9.7 | 16.1 | 0.00 | 0.00 | 0.00 | 82 | 1014.3 |
| 20260906134520 | 23 | 81 | 9.7 | 20.9 | 0.00 | 0.00 | 0.00 | 82 | 1014.1 |
| 20260906133019 | 23 | 75 | 9.7 | 17.7 | 0.00 | 0.00 | 0.00 | 82 | 1014.0 |
| 20260906131522 | 23 | 68 | 12.9 | 19.3 | 0.00 | 0.00 | 0.00 | 80 | 1013.7 |
| 20260906130022 | 23 | 67 | 4.8 | 14.5 | 0.00 | 0.00 | 0.00 | 79 | 1013.9 |
| 20260906124515 | 23 | 69 | 3.2 | 9.7 | 0.00 | 0.00 | 0.00 | 78 | 1013.6 |
| 20260906123013 | 22 | 68 | 6.4 | 14.5 | 0.00 | 0.00 | 0.00 | 77 | 1013.7 |
| 20260906121509 | 22 | 77 | 6.4 | 12.9 | 0.00 | 0.00 | 0.00 | 77 | 1013.3 |
| 20260906120007 | 22 | 70 | 4.8 | 9.7 | 0.00 | 0.00 | 0.00 | 77 | 1013.3 |
| 20260906114506 | 23 | 70 | 4.8 | 8.0 | 0.00 | 0.00 | 0.00 | 77 | 1013.4 |
| 20260906113006 | 23 | 75 | 3.2 | 8.0 | 0.00 | 0.00 | 0.00 | 77 | 1013.4 |
| 20260906111501 | 23 | 76 | 1.6 | 8.0 | 0.00 | 0.00 | 0.00 | 78 | 1013.2 |
| 20260906110059 | 23 | 78 | 4.8 | 11.3 | 0.00 | 0.00 | 0.00 | 78 | 1013.0 |
| 20260906104557 | 23 | 79 | 3.2 | 8.0 | 0.00 | 0.00 | 0.00 | 78 | 1013.0 |
| 20260906103054 | 23 | 79 | 3.2 | 6.4 | 0.00 | 0.00 | 0.00 | 79 | 1012.8 |
| 20260906101557 | 23 | 76 | 3.2 | 9.7 | 0.00 | 0.00 | 0.00 | 79 | 1012.7 |
| 20260906100051 | 23 | 74 | 4.8 | 9.7 | 0.00 | 0.00 | 0.00 | 79 | 1012.7 |
| 20260906094548 | 24 | 75 | 6.4 | 16.1 | 0.00 | 0.00 | 0.00 | 79 | 1012.6 |
| 20260906093054 | 24 | 84 | 6.4 | 16.1 | 0.00 | 0.00 | 0.00 | 79 | 1012.3 |
| 20260906091542 | 24 | 77 | 8.0 | 12.9 | 0.00 | 0.00 | 0.00 | 79 | 1012.3 |
| 20260906090039 | 24 | 75 | 9.7 | 14.5 | 0.00 | 0.00 | 0.00 | 79 | 1012.2 |
| 20260906084548 | 25 | 65 | 4.8 | 14.5 | 0.00 | 0.00 | 0.00 | 79 | 1012.1 |
| 20260906083038 | 25 | 66 | 4.8 | 12.9 | 0.00 | 0.00 | 0.00 | 79 | 1012.0 |
| 20260906081537 | 25 | 61 | 6.4 | 14.5 | 0.00 | 0.00 | 0.00 | 80 | 1012.1 |
| 20260906080050 | 25 | 61 | 6.4 | 14.5 | 0.00 | 0.00 | 0.00 | 80 | 1012.0 |
| 20260906074535 | 25 | 29 | 0.0 | 0.0 | 0.00 | 0.00 | 0.00 | 80 | 1012.0 |
| 20260906073034 | 25 | 29 | 0.0 | 0.0 | 0.00 | 0.00 | 0.00 | 81 | 1012.0 |
| 20260906071534 | 25 | 29 | 0.0 | 0.0 | 0.00 | 0.00 | 0.00 | 82 | 1011.9 |
| 20260906070033 | 25 | 29 | 0.0 | 0.0 | 0.00 | 0.00 | 0.00 | 82 | 1011.8 |
| 20260906064535 | 25 | 29 | 0.0 | 0.0 | 0.00 | 0.00 | 0.00 | 82 | 1011.9 |
| 20260906063032 | 25 | 29 | 0.0 | 0.0 | 0.00 | 0.00 | 0.00 | 82 | 1012.1 |
| 20260906061537 | 24 | 29 | 0.0 | 0.0 | 0.00 | 0.00 | 0.00 | 83 | 1012.0 |
| 20260906060029 | 25 | 29 | 0.0 | 0.0 | 0.00 | 0.00 | 0.00 | 83 | 1012.1 |
| 20260906054527 | 25 | 29 | 0.0 | 0.0 | 0.00 | 0.00 | 0.00 | 84 | 1012.2 |
| 20260906053023 | 26 | 29 | 0.0 | 0.0 | 0.00 | 0.00 | 0.00 | 82 | 1012.1 |
| 20260906051521 | 26 | 29 | 0.0 | 0.0 | 0.00 | 0.00 | 0.00 | 83 | 1011.9 |
| 20260906050019 | 26 | 29 | 0.0 | 0.0 | 0.00 | 0.00 | 0.00 | 83 | 1011.8 |
| 20260906044520 | 26 | 29 | 0.0 | 0.0 | 0.00 | 0.00 | 0.00 | 81 | 1011.8 |
| 20260906043018 | 26 | 29 | 0.0 | 0.0 | 0.00 | 0.00 | 0.00 | 81 | 1011.7 |
| 20260906041518 | 27 | 29 | 0.0 | 0.0 | 0.00 | 0.00 | 0.00 | 80 | 1011.6 |
| 20260906040017 | 27 | 29 | 0.0 | 0.0 | 0.00 | 0.00 | 0.00 | 79 | 1011.5 |
| 20260906034525 | 27 | 29 | 0.0 | 0.0 | 0.00 | 0.00 | 0.00 | 77 | 1011.3 |
| 20260906033018 | 27 | 29 | 0.0 | 0.0 | 0.00 | 0.00 | 0.00 | 77 | 1011.1 |
| 20260906031515 | 28 | 29 | 0.0 | 0.0 | 0.00 | 0.00 | 0.00 | 76 | 1011.0 |
| 20260906030014 | 28 | 29 | 0.0 | 0.0 | 0.00 | 0.00 | 0.00 | 75 | 1010.9 |
| 20260906024513 | 28 | 29 | 0.0 | 0.0 | 0.00 | 0.00 | 0.00 | 73 | 1011.0 |
| 20260906023013 | 28 | 29 | 0.0 | 0.0 | 0.00 | 0.00 | 0.00 | 72 | 1010.7 |
| 20260906021516 | 29 | 29 | 0.0 | 0.0 | 0.00 | 0.00 | 0.00 | 70 | 1010.6 |
| 20260906020013 | 29 | 29 | 0.0 | 0.0 | 0.00 | 0.00 | 0.00 | 69 | 1010.5 |
| 20260906014520 | 29 | 29 | 3.2 | 6.4 | 0.00 | 0.00 | 0.00 | 68 | 1010.3 |
| 20260906013011 | 30 | 29 | 3.2 | 6.4 | 0.00 | 0.00 | 0.00 | 67 | 1010.0 |
| 20260906011511 | 30 | 29 | 0.0 | 4.8 | 0.00 | 0.00 | 0.00 | 64 | 1009.9 |
| 20260906010010 | 31 | 29 | 0.0 | 0.0 | 0.00 | 0.00 | 0.00 | 64 | 1009.8 |
| 20260906004509 | 32 | 29 | 0.0 | 0.0 | 0.00 | 0.00 | 0.00 | 60 | 1009.6 |
| 20260906003009 | 32 | 29 | 0.0 | 0.0 | 0.00 | 0.00 | 0.00 | 56 | 1009.5 |
| 20260906001508 | 33 | 29 | 0.0 | 0.0 | 0.00 | 0.00 | 0.00 | 55 | 1009.6 |
| 20260906000008 | 33 | 29 | 0.0 | 0.0 | 0.00 | 0.00 | 0.00 | 53 | 1009.6 |
| 20260905234506 | 34 | 29 | 0.0 | 6.4 | 0.00 | 0.00 | 0.00 | 52 | 1009.5 |
| 20260905233006 | 35 | 29 | 3.2 | 8.0 | 0.00 | 0.00 | 0.00 | 49 | 1009.6 |
| 20260905231506 | 35 | 29 | 6.4 | 12.9 | 0.00 | 0.00 | 0.00 | 48 | 1009.4 |
| 20260905230006 | 35 | 35 | 8.0 | 14.5 | 0.00 | 0.00 | 0.00 | 47 | 1009.4 |
| 20260905224512 | 35 | 14 | 6.4 | 14.5 | 0.00 | 0.00 | 0.00 | 46 | 1009.3 |
| 20260905223004 | 36 | 15 | 6.4 | 14.5 | 0.00 | 0.00 | 0.00 | 46 | 1009.3 |
| 20260905221509 | 36 | 22 | 9.7 | 16.1 | 0.00 | 0.00 | 0.00 | 46 | 1009.3 |
| 20260905220003 | 36 | 4 | 9.7 | 19.3 | 0.00 | 0.00 | 0.00 | 46 | 1009.3 |
| 20260905214501 | 36 | 4 | 11.3 | 19.3 | 0.00 | 0.00 | 0.00 | 45 | 1009.3 |
| 20260905213100 | 36 | 27 | 8.0 | 14.5 | 0.00 | 0.00 | 0.00 | 43 | 1009.4 |
| 20260905211558 | 36 | 339 | 11.3 | 22.5 | 0.00 | 0.00 | 0.00 | 42 | 1009.7 |
| 20260905210056 | 36 | 339 | 4.8 | 19.3 | 0.00 | 0.00 | 0.00 | 43 | 1009.9 |
| 20260905204554 | 36 | 12 | 11.3 | 17.7 | 0.00 | 0.00 | 0.00 | 42 | 1010.1 |
| 20260905203054 | 36 | 354 | 9.7 | 17.7 | 0.00 | 0.00 | 0.00 | 42 | 1010.1 |
| 20260905201601 | 35 | 319 | 8.0 | 17.7 | 0.00 | 0.00 | 0.00 | 44 | 1010.3 |
| 20260905200052 | 36 | 335 | 6.4 | 16.1 | 0.00 | 0.00 | 0.00 | 46 | 1010.5 |
| 20260905194551 | 36 | 316 | 11.3 | 16.1 | 0.00 | 0.00 | 0.00 | 44 | 1010.5 |
| 20260905193050 | 37 | 345 | 14.5 | 19.3 | 0.00 | 0.00 | 0.00 | 41 | 1010.7 |
| 20260905191552 | 36 | 318 | 14.5 | 22.5 | 0.00 | 0.00 | 0.00 | 42 | 1010.7 |
| 20260905190100 | 36 | 322 | 12.9 | 17.7 | 0.00 | 0.00 | 0.00 | 42 | 1010.8 |
| 20260905184558 | 36 | 287 | 4.8 | 20.9 | 0.00 | 0.00 | 0.00 | 44 | 1010.9 |
| 20260905183043 | 36 | 318 | 11.3 | 19.3 | 0.00 | 0.00 | 0.00 | 43 | 1011.0 |
| 20260905181543 | 36 | 277 | 9.7 | 19.3 | 0.00 | 0.00 | 0.00 | 45 | 1011.2 |
| 20260905180042 | 36 | 310 | 6.4 | 14.5 | 0.00 | 0.00 | 0.00 | 45 | 1011.2 |
| 20260905174545 | 36 | 285 | 11.3 | 17.7 | 0.00 | 0.00 | 0.00 | 45 | 1011.4 |
| 20260905173041 | 36 | 281 | 3.2 | 17.7 | 0.00 | 0.00 | 0.00 | 46 | 1011.8 |
| 20260905171539 | 35 | 285 | 6.4 | 17.7 | 0.00 | 0.00 | 0.00 | 48 | 1011.9 |
| 20260905170040 | 35 | 304 | 3.2 | 16.1 | 0.00 | 0.00 | 0.00 | 48 | 1012.0 |
| 20260905164536 | 36 | 324 | 3.2 | 14.5 | 0.00 | 0.00 | 0.00 | 47 | 1012.1 |
| 20260905163033 | 35 | 257 | 4.8 | 11.3 | 0.00 | 0.00 | 0.00 | 47 | 1012.0 |
| 20260905161529 | 35 | 256 | 6.4 | 11.3 | 0.00 | 0.00 | 0.00 | 49 | 1011.9 |
| 20260905160029 | 35 | 236 | 0.0 | 0.0 | 0.00 | 0.00 | 0.00 | 48 | 1011.9 |